createdAt,value
2022-09-13T00:01:10.387Z,2.50
2022-09-13T00:03:37.711Z,3.75
2022-09-13T00:06:11.164Z,5.00
2022-09-13T00:08:39.039Z,4.50
2022-09-13T00:11:07.069Z,4.00
2022-09-13T00:13:34.487Z,3.00
2022-09-13T00:16:02.051Z,5.00
2022-09-13T00:18:30.291Z,4.50
2022-09-13T00:21:09.285Z,4.00
2022-09-13T00:23:36.361Z,3.00
2022-09-13T00:26:07.200Z,4.50
2022-09-13T00:28:34.793Z,4.00
2022-09-13T00:31:10.282Z,3.75
2022-09-13T00:33:38.679Z,4.25
2022-09-13T00:36:08.748Z,3.25
2022-09-13T00:38:36.556Z,4.00
2022-09-13T00:41:04.394Z,4.00
2022-09-13T00:43:45.338Z,3.75
2022-09-13T00:46:20.034Z,4.50
2022-09-13T00:48:56.953Z,4.00
2022-09-13T00:51:26.564Z,3.75
2022-09-13T00:53:57.769Z,4.00
2022-09-13T00:56:32.325Z,3.25
2022-09-13T00:59:07.664Z,3.25
2022-09-13T01:01:43.333Z,3.00
2022-09-13T01:04:12.856Z,4.25
2022-09-13T01:06:42.155Z,5.00
2022-09-13T01:09:12.677Z,4.00
2022-09-13T01:11:46.837Z,3.75
2022-09-13T01:14:16.277Z,4.00
2022-09-13T01:16:47.647Z,5.25
2022-09-13T01:19:17.151Z,3.50
2022-09-13T01:22:40.198Z,5.00
2022-09-13T01:26:18.499Z,3.75
2022-09-13T01:29:15.677Z,3.75
2022-09-13T01:32:01.855Z,4.00
2022-09-13T01:34:50.768Z,4.00
2022-09-13T01:37:37.018Z,4.25
2022-09-13T01:40:17.885Z,3.00
2022-09-13T01:43:19.328Z,5.25
2022-09-13T01:46:00.671Z,4.50
2022-09-13T01:48:47.793Z,3.75
2022-09-13T01:51:26.927Z,4.75
2022-09-13T01:54:16.733Z,4.00
2022-09-13T01:56:58.189Z,5.00
2022-09-13T01:59:38.167Z,5.00
2022-09-13T02:02:15.064Z,5.75
2022-09-13T02:04:51.786Z,4.50
2022-09-13T02:07:27.578Z,4.50
2022-09-13T02:10:03.573Z,5.00
2022-09-13T02:12:37.675Z,5.25
2022-09-13T02:15:12.841Z,5.00
2022-09-13T02:17:46.242Z,4.75
2022-09-13T02:20:23.759Z,5.25
2022-09-13T02:22:57.024Z,4.75
2022-09-13T02:25:28.388Z,6.00
2022-09-13T02:28:02.000Z,6.75
2022-09-13T02:30:32.911Z,5.00
2022-09-13T02:33:07.487Z,7.00
2022-09-13T02:35:41.880Z,5.00
2022-09-13T02:38:17.610Z,5.50
2022-09-13T02:40:52.927Z,5.25
2022-09-13T02:43:28.057Z,5.25
2022-09-13T02:46:13.969Z,5.50
2022-09-13T02:48:58.670Z,3.00
2022-09-13T02:51:41.925Z,5.00
2022-09-13T02:54:25.441Z,6.00
2022-09-13T02:57:03.331Z,5.75
2022-09-13T02:59:30.444Z,5.00
2022-09-13T03:02:05.052Z,5.00
2022-09-13T03:04:33.792Z,7.00
2022-09-13T03:07:02.997Z,5.75
2022-09-13T03:09:30.936Z,5.25
2022-09-13T03:12:32.931Z,2.75
2022-09-13T03:15:16.023Z,5.50
2022-09-13T03:18:00.467Z,6.50
2022-09-13T03:20:43.765Z,5.00
2022-09-13T03:23:35.776Z,6.50
2022-09-13T03:26:39.343Z,6.00
2022-09-13T03:29:36.902Z,6.00
2022-09-13T03:32:21.724Z,5.00
2022-09-13T03:34:59.415Z,6.00
2022-09-13T03:37:36.029Z,4.25
2022-09-13T03:40:12.789Z,4.25
2022-09-13T03:42:49.283Z,4.75
2022-09-13T03:45:22.735Z,5.50
2022-09-13T03:47:52.015Z,4.00
2022-09-13T03:50:23.012Z,5.00
2022-09-13T03:52:58.444Z,5.25
2022-09-13T03:55:28.883Z,5.00
2022-09-13T03:57:55.676Z,4.75
2022-09-13T04:00:23.152Z,4.75
2022-09-13T04:02:49.934Z,5.00
2022-09-13T04:05:16.790Z,5.00
2022-09-13T04:07:43.577Z,6.00
2022-09-13T04:10:13.512Z,4.25
2022-09-13T04:12:42.110Z,1.75
2022-09-13T04:15:09.902Z,6.25
2022-09-13T04:17:36.610Z,6.00
2022-09-13T04:20:04.480Z,5.25
2022-09-13T04:44:49.862Z,5.00
2022-09-13T04:47:16.799Z,5.25
2022-09-13T04:49:43.555Z,6.00
2022-09-13T04:52:10.394Z,5.00
2022-09-13T04:55:42.775Z,4.00
2022-09-13T05:12:59.416Z,8.00
2022-09-13T05:15:26.279Z,7.00
2022-09-13T05:17:53.565Z,5.00
2022-09-13T05:20:20.508Z,7.00
2022-09-13T05:22:50.138Z,7.00
2022-09-13T05:25:17.290Z,5.25
2022-09-13T05:27:45.604Z,5.00
2022-09-13T05:30:14.385Z,5.00
2022-09-13T05:32:41.367Z,5.50
2022-09-13T05:35:08.979Z,6.00
2022-09-13T05:37:36.278Z,5.75
2022-09-13T05:40:12.563Z,5.25
2022-09-13T05:42:41.538Z,5.75
2022-09-13T05:45:09.623Z,6.00
2022-09-13T05:47:38.045Z,5.00
2022-09-13T05:50:15.869Z,5.00
2022-09-13T05:52:52.292Z,5.00
2022-09-13T05:55:20.297Z,6.00
2022-09-13T05:57:47.017Z,6.00
2022-09-13T06:00:52.778Z,5.00
2022-09-13T06:03:21.568Z,5.00
2022-09-13T06:05:48.754Z,5.50
2022-09-13T06:08:16.576Z,5.75
2022-09-13T06:10:43.313Z,6.00
2022-09-13T06:13:10.261Z,4.75
2022-09-13T06:15:40.152Z,6.00
2022-09-13T06:18:10.385Z,5.50
2022-09-13T06:20:38.739Z,7.00
2022-09-13T06:23:05.504Z,7.00
2022-09-13T06:25:32.512Z,7.25
2022-09-13T06:27:59.227Z,2.25
2022-09-13T06:30:26.247Z,5.25
2022-09-13T06:32:55.753Z,2.75
2022-09-13T06:35:22.730Z,7.25
2022-09-13T06:37:51.491Z,7.00
2022-09-13T06:40:23.039Z,5.00
2022-09-13T06:42:52.154Z,6.50
2022-09-13T06:45:19.193Z,1.75
2022-09-13T06:47:46.043Z,5.50
2022-09-13T06:50:12.806Z,5.25
2022-09-13T06:52:39.649Z,4.50
2022-09-13T06:55:12.541Z,4.20
2022-09-13T06:57:39.746Z,6.00
2022-09-13T07:00:08.776Z,6.00
2022-09-13T07:02:41.965Z,6.00
2022-09-13T07:05:09.634Z,5.00
2022-09-13T07:07:36.408Z,6.00
2022-09-13T07:10:03.681Z,5.80
2022-09-13T07:12:31.770Z,6.40
2022-09-13T07:14:58.851Z,7.40
2022-09-13T07:17:31.202Z,4.40
2022-09-13T07:19:58.376Z,5.40
2022-09-13T07:22:25.141Z,5.20
2022-09-13T07:24:52.291Z,4.80
2022-09-13T07:27:19.122Z,4.00
2022-09-13T07:29:47.346Z,5.00
2022-09-13T07:32:14.115Z,4.00
2022-09-13T07:34:40.919Z,3.20
2022-09-13T07:37:08.461Z,4.80
2022-09-13T07:39:35.229Z,3.60
2022-09-13T07:42:02.111Z,4.00
2022-09-13T07:44:29.214Z,4.20
2022-09-13T07:46:57.602Z,4.40
2022-09-13T07:49:24.438Z,4.00
2022-09-13T07:51:51.399Z,5.00
2022-09-13T07:54:19.496Z,4.00
2022-09-13T07:56:47.090Z,4.20
2022-09-13T07:59:16.474Z,3.80
2022-09-13T08:01:45.587Z,4.00
2022-09-13T08:04:19.167Z,3.20
2022-09-13T08:06:46.559Z,4.00
2022-09-13T08:09:15.174Z,4.00
2022-09-13T08:11:44.118Z,3.00
2022-09-13T08:14:14.339Z,4.80
2022-09-13T08:16:41.503Z,5.00
2022-09-13T08:19:12.238Z,3.20
2022-09-13T08:21:41.953Z,4.40
2022-09-13T08:24:15.107Z,5.00
2022-09-13T08:26:42.168Z,3.40
2022-09-13T08:29:08.944Z,5.40
2022-09-13T08:31:35.711Z,2.40
2022-09-13T08:34:02.901Z,3.60
2022-09-13T08:36:31.052Z,4.00
2022-09-13T08:39:00.872Z,4.60
2022-09-13T08:42:00.970Z,4.40
2022-09-13T08:44:30.791Z,5.00
2022-09-13T08:47:09.347Z,4.40
2022-09-13T08:49:44.032Z,4.00
2022-09-13T08:52:28.538Z,4.00
2022-09-13T08:54:58.560Z,4.00
2022-09-13T08:57:53.823Z,4.00
2022-09-13T09:00:32.987Z,4.60
2022-09-13T09:07:25.766Z,3.00
2022-09-13T09:10:23.531Z,4.40
2022-09-13T09:13:08.079Z,4.40
2022-09-13T09:15:42.905Z,4.00
2022-09-13T09:18:18.976Z,4.00
2022-09-13T09:20:55.072Z,4.00
2022-09-13T09:23:58.631Z,3.00
2022-09-13T09:26:30.663Z,3.40
2022-09-13T09:29:01.974Z,2.60
2022-09-13T09:31:45.221Z,3.00
2022-09-13T09:34:32.121Z,3.00
2022-09-13T09:37:31.099Z,3.40
2022-09-13T09:41:07.713Z,3.00
2022-09-13T09:44:42.119Z,4.00
2022-09-13T09:47:25.894Z,2.60
2022-09-13T09:50:16.028Z,3.00
2022-09-13T10:01:37.045Z,3.00
2022-09-13T10:04:25.418Z,2.40
2022-09-13T10:11:13.289Z,2.60
2022-09-13T10:14:08.002Z,2.00
2022-09-13T10:16:37.568Z,3.00
2022-09-13T10:29:17.654Z,4.40
2022-09-13T10:32:12.428Z,2.00
2022-09-13T10:34:46.182Z,3.00
2022-09-13T10:37:24.446Z,2.40
2022-09-13T10:40:27.349Z,3.00
2022-09-13T10:42:58.569Z,2.20
2022-09-13T10:45:30.282Z,0.00
2022-09-13T10:48:11.947Z,2.40
2022-09-13T10:50:40.998Z,2.40
2022-09-13T10:53:39.662Z,2.00
2022-09-13T10:56:21.920Z,2.20
2022-09-13T10:58:50.373Z,3.00
2022-09-13T11:02:18.546Z,1.40
2022-09-13T11:05:13.831Z,2.00
2022-09-13T11:08:16.826Z,3.00
2022-09-13T11:11:02.866Z,3.40
2022-09-13T11:17:08.880Z,3.00
2022-09-13T11:20:10.481Z,6.60
2022-09-13T11:23:35.269Z,8.60
2022-09-13T11:26:30.304Z,3.00
2022-09-13T11:29:16.463Z,4.20
2022-09-13T11:32:05.367Z,5.60
2022-09-13T11:34:47.327Z,6.20
2022-09-13T11:37:36.903Z,3.20
2022-09-13T11:40:30.935Z,3.00
2022-09-13T11:43:31.841Z,5.00
2022-09-13T11:46:11.496Z,2.00
2022-09-13T11:49:43.235Z,2.00
2022-09-13T11:52:25.530Z,2.80
2022-09-13T11:55:15.575Z,1.60
2022-09-13T11:57:49.651Z,3.00
2022-09-13T12:00:22.786Z,3.00
2022-09-13T12:03:03.564Z,2.40
2022-09-13T12:05:40.668Z,2.00
2022-09-13T12:08:19.227Z,1.60
2022-09-13T12:10:53.515Z,3.00
2022-09-13T12:13:26.553Z,3.00
2022-09-13T12:16:00.509Z,1.80
2022-09-13T12:18:34.704Z,1.40
2022-09-13T12:21:19.413Z,0.60
2022-09-13T12:23:58.394Z,1.20
2022-09-13T12:26:41.605Z,1.20
2022-09-13T12:29:19.290Z,1.80
2022-09-13T12:31:51.157Z,2.00
2022-09-13T12:34:34.240Z,2.00
2022-09-13T12:37:38.874Z,1.20
2022-09-13T12:40:49.712Z,1.20
2022-09-13T12:44:05.894Z,1.00
2022-09-13T12:47:11.256Z,1.00
2022-09-13T12:57:17.514Z,2.00
2022-09-13T13:00:22.780Z,1.00
2022-09-13T13:03:04.107Z,1.00
2022-09-13T13:05:36.973Z,2.00
2022-09-13T13:08:25.742Z,0.00
2022-09-13T13:11:03.983Z,1.80
2022-09-13T13:13:37.131Z,1.00
2022-09-13T13:16:28.583Z,1.80
2022-09-13T13:18:57.557Z,1.20
2022-09-13T13:21:35.447Z,0.80
2022-09-13T13:24:47.757Z,1.00
2022-09-13T13:27:38.825Z,2.00
2022-09-13T13:30:42.024Z,1.60
2022-09-13T13:33:19.893Z,1.00
2022-09-13T13:35:47.666Z,1.00
2022-09-13T13:38:49.159Z,1.00
2022-09-13T13:41:58.829Z,1.80
2022-09-13T13:45:13.963Z,1.40
2022-09-13T13:48:51.136Z,2.40
2022-09-13T13:51:26.614Z,1.20
2022-09-13T13:54:03.009Z,1.00
2022-09-13T13:56:48.323Z,1.00
2022-09-13T13:59:27.794Z,1.00
2022-09-13T14:01:59.427Z,1.00
2022-09-13T14:05:47.029Z,0.80
2022-09-13T14:08:39.181Z,1.00
2022-09-13T14:11:30.499Z,1.00
2022-09-13T14:14:26.023Z,0.00
2022-09-13T14:17:26.482Z,0.00
2022-09-13T14:20:04.555Z,1.00
2022-09-13T14:22:33.857Z,0.80
2022-09-13T14:25:23.509Z,0.00
2022-09-13T14:27:56.032Z,1.00
2022-09-13T14:30:32.413Z,0.40
2022-09-13T14:33:01.032Z,1.00
2022-09-13T14:35:31.068Z,1.00
2022-09-13T14:38:13.109Z,1.00
2022-09-13T14:40:41.488Z,1.00
2022-09-13T14:43:15.841Z,1.00
2022-09-13T14:45:48.715Z,1.40
2022-09-13T14:48:24.470Z,0.00
2022-09-13T14:50:58.064Z,1.00
2022-09-13T14:53:30.912Z,1.00
2022-09-13T14:56:05.501Z,0.00
2022-09-13T14:58:42.611Z,1.00
2022-09-13T15:01:14.047Z,1.00
2022-09-13T15:03:43.409Z,0.00
2022-09-13T15:06:23.700Z,1.00
2022-09-13T15:08:55.491Z,1.00
2022-09-13T15:11:35.432Z,0.00
2022-09-13T15:14:24.278Z,1.00
2022-09-13T15:16:55.045Z,1.00
2022-09-13T15:19:35.979Z,1.00
2022-09-13T15:22:14.352Z,1.00
2022-09-13T15:24:47.711Z,1.60
2022-09-13T15:27:30.685Z,1.00
2022-09-13T15:30:05.839Z,0.60
2022-09-13T15:32:47.052Z,1.40
2022-09-13T15:35:23.226Z,1.00
2022-09-13T15:38:00.799Z,2.20
2022-09-13T15:40:30.776Z,1.00
2022-09-13T15:43:06.363Z,2.20
2022-09-13T15:45:41.700Z,1.80
2022-09-13T15:48:25.682Z,3.00
2022-09-13T15:51:08.106Z,2.00
2022-09-13T15:56:58.365Z,2.00
2022-09-13T15:59:33.077Z,3.00
2022-09-13T16:02:19.436Z,7.80
2022-09-13T16:04:49.119Z,2.00
2022-09-13T16:08:06.560Z,2.40
2022-09-13T16:10:43.545Z,3.00
2022-09-13T16:16:16.636Z,4.00
2022-09-13T16:18:49.346Z,8.00
2022-09-13T16:21:17.233Z,3.60
2022-09-13T16:23:44.529Z,2.80
2022-09-13T16:26:23.837Z,3.00
2022-09-13T16:28:56.390Z,3.00
2022-09-13T16:34:12.391Z,3.00
2022-09-13T16:36:39.463Z,3.00
2022-09-13T16:39:06.989Z,4.00
2022-09-13T16:41:34.033Z,2.60
2022-09-13T16:44:23.487Z,3.20
2022-09-13T16:46:55.649Z,3.00
2022-09-13T16:49:26.594Z,3.00
2022-09-13T16:52:18.990Z,9.60
2022-09-13T16:54:47.990Z,18.00
2022-09-13T16:57:16.001Z,4.40
2022-09-13T16:59:43.236Z,3.00
2022-09-13T17:02:18.830Z,4.00
2022-09-13T17:04:46.957Z,4.00
2022-09-13T17:07:14.674Z,2.80
2022-09-13T17:09:45.003Z,3.00
2022-09-13T17:12:14.759Z,1.80
2022-09-13T17:14:47.834Z,3.80
2022-09-13T17:17:29.228Z,3.00
2022-09-13T17:19:56.576Z,3.20
2022-09-13T17:25:18.399Z,3.20
2022-09-13T17:28:01.891Z,2.40
2022-09-13T17:30:37.557Z,3.00
2022-09-13T17:33:07.315Z,3.00
2022-09-13T17:35:37.373Z,3.00
2022-09-13T17:38:11.983Z,4.00
2022-09-13T17:40:46.543Z,2.40
2022-09-13T17:44:05.954Z,3.00
2022-09-13T17:46:37.112Z,3.60
2022-09-13T17:49:05.762Z,4.00
2022-09-13T17:51:36.360Z,3.20
2022-09-13T17:54:08.009Z,4.00
2022-09-13T17:56:57.626Z,3.00
2022-09-13T17:59:29.228Z,5.40
2022-09-13T18:02:10.094Z,3.00
2022-09-13T18:08:38.906Z,4.00
2022-09-13T18:11:54.407Z,5.80
2022-09-13T18:18:21.820Z,5.00
2022-09-13T18:21:39.388Z,5.00
2022-09-13T18:25:09.848Z,4.40
2022-09-13T18:31:13.795Z,4.80
2022-09-13T18:33:48.552Z,4.60
2022-09-13T18:36:18.951Z,5.00
2022-09-13T20:02:37.576Z,4.00
2022-09-13T20:05:28.340Z,4.60
2022-09-13T20:11:18.596Z,5.00
2022-09-13T20:18:21.825Z,5.00
2022-09-13T20:21:50.941Z,5.00
2022-09-13T20:27:30.891Z,5.20
